createdAt,value
2018-09-19T00:00:32.044Z,0
2018-09-19T00:01:31.798Z,0
2018-09-19T00:02:31.784Z,0
2018-09-19T00:03:31.776Z,0
2018-09-19T00:04:31.517Z,0
2018-09-19T00:05:31.766Z,0
2018-09-19T00:06:31.754Z,0
2018-09-19T00:07:31.764Z,0
2018-09-19T00:08:31.747Z,0
2018-09-19T00:09:31.760Z,0
2018-09-19T00:10:31.763Z,0
2018-09-19T00:11:31.737Z,0
2018-09-19T00:12:31.734Z,0
2018-09-19T00:13:31.487Z,0
2018-09-19T00:14:31.723Z,0
2018-09-19T00:15:31.471Z,0
2018-09-19T00:16:31.724Z,0
2018-09-19T00:17:31.763Z,0
2018-09-19T00:18:31.712Z,0
2018-09-19T00:19:31.449Z,0
2018-09-19T00:20:31.446Z,0
2018-09-19T00:21:31.694Z,0
2018-09-19T00:22:31.430Z,0
2018-09-19T00:23:31.723Z,0
2018-09-19T00:24:31.699Z,0
2018-09-19T00:25:31.677Z,0
2018-09-19T00:26:31.664Z,0
2018-09-19T00:27:31.668Z,0
2018-09-19T00:28:31.415Z,0
2018-09-19T00:29:31.398Z,0
2018-09-19T00:30:31.644Z,0
2018-09-19T00:31:31.902Z,0
2018-09-19T00:32:31.632Z,0
2018-09-19T00:33:31.643Z,0
2018-09-19T00:34:31.630Z,0
2018-09-19T00:35:31.653Z,0
2018-09-19T00:36:31.630Z,0
2018-09-19T00:37:31.610Z,0
2018-09-19T00:38:31.602Z,0
2018-09-19T00:39:31.613Z,0
2018-09-19T00:40:31.595Z,0
2018-09-19T00:41:31.591Z,0
2018-09-19T00:42:31.590Z,0
2018-09-19T00:43:31.597Z,0
2018-09-19T00:44:31.346Z,0
2018-09-19T00:45:31.572Z,0
2018-09-19T00:46:31.609Z,0
2018-09-19T00:47:31.552Z,0
2018-09-19T00:48:31.548Z,0
2018-09-19T00:49:31.297Z,0
2018-09-19T00:50:31.582Z,0
2018-09-19T00:51:31.555Z,0
2018-09-19T00:52:31.535Z,0
2018-09-19T00:53:31.532Z,0
2018-09-19T00:54:31.542Z,0
2018-09-19T00:55:31.531Z,0
2018-09-19T00:56:31.255Z,0
2018-09-19T00:57:31.526Z,0
2018-09-19T00:58:31.515Z,0
2018-09-19T00:59:31.500Z,0
2018-09-19T01:00:31.493Z,0
2018-09-19T01:01:31.545Z,0
2018-09-19T01:02:31.760Z,0
2018-09-19T01:03:31.533Z,0
2018-09-19T01:04:31.485Z,0
2018-09-19T01:05:31.537Z,0
2018-09-19T01:06:31.464Z,0
2018-09-19T01:07:31.456Z,0
2018-09-19T01:08:31.456Z,0
2018-09-19T01:09:31.200Z,0
2018-09-19T01:10:31.467Z,0
2018-09-19T01:11:31.459Z,0
2018-09-19T01:12:31.436Z,0
2018-09-19T01:13:31.423Z,0
2018-09-19T01:14:31.433Z,0
2018-09-19T01:15:31.440Z,0
2018-09-19T01:16:31.427Z,0
2018-09-19T01:17:31.044Z,0
2018-09-19T01:18:31.399Z,0
2018-09-19T01:19:31.396Z,0
2018-09-19T01:20:31.524Z,0
2018-09-19T01:21:31.392Z,0
2018-09-19T01:22:31.437Z,0
2018-09-19T01:23:31.378Z,0
2018-09-19T01:24:31.380Z,0
2018-09-19T01:25:31.397Z,0
2018-09-19T01:26:31.376Z,0
2018-09-19T01:27:31.368Z,0
2018-09-19T01:28:31.363Z,0
2018-09-19T01:29:31.384Z,0
2018-09-19T01:30:31.358Z,0
2018-09-19T01:31:31.347Z,0
2018-09-19T01:32:31.347Z,0
2018-09-19T01:33:31.597Z,0
2018-09-19T01:34:31.335Z,0
2018-09-19T01:35:31.339Z,0
2018-09-19T01:36:31.328Z,0
2018-09-19T01:37:31.317Z,0
2018-09-19T01:38:31.317Z,0
2018-09-19T01:39:31.315Z,0
2018-09-19T01:40:31.308Z,0
2018-09-19T01:41:31.296Z,0
2018-09-19T01:42:31.296Z,0
2018-09-19T01:43:31.290Z,0
2018-09-19T01:44:31.320Z,0
2018-09-19T01:45:31.282Z,0
2018-09-19T01:46:31.301Z,0
2018-09-19T01:47:31.278Z,0
2018-09-19T01:48:31.274Z,0
2018-09-19T01:49:31.275Z,0
2018-09-19T01:50:31.030Z,0
2018-09-19T01:51:31.252Z,0
2018-09-19T01:52:31.319Z,0
2018-09-19T01:53:31.252Z,0
2018-09-19T01:54:31.000Z,0
2018-09-19T01:55:31.240Z,0
2018-09-19T01:56:31.230Z,0
2018-09-19T01:57:31.224Z,0
2018-09-19T01:58:31.225Z,0
2018-09-19T01:59:31.320Z,0
2018-09-19T02:00:31.226Z,0
2018-09-19T02:01:31.204Z,0
2018-09-19T02:02:31.209Z,0
2018-09-19T02:03:31.250Z,0
2018-09-19T02:04:31.193Z,0
2018-09-19T02:05:31.207Z,0
2018-09-19T02:06:31.185Z,0
2018-09-19T02:07:31.180Z,0
2018-09-19T02:08:31.175Z,0
2018-09-19T02:09:31.181Z,0
2018-09-19T02:10:31.173Z,0
2018-09-19T02:11:31.164Z,0
2018-09-19T02:12:30.924Z,0
2018-09-19T02:13:31.150Z,0
2018-09-19T02:14:31.142Z,0
2018-09-19T02:15:31.149Z,0
2018-09-19T02:16:31.146Z,0
2018-09-19T02:17:31.137Z,0
2018-09-19T02:18:31.125Z,0
2018-09-19T02:19:31.122Z,0
2018-09-19T02:20:31.146Z,0
2018-09-19T02:21:31.119Z,0
2018-09-19T02:22:31.124Z,0
2018-09-19T02:23:31.118Z,0
2018-09-19T02:24:31.105Z,0
2018-09-19T02:25:31.133Z,0
2018-09-19T02:26:31.090Z,0
2018-09-19T02:27:31.088Z,0
2018-09-19T02:28:31.372Z,0
2018-09-19T02:29:31.077Z,0
2018-09-19T02:30:31.105Z,0
2018-09-19T02:31:31.110Z,0
2018-09-19T02:32:31.129Z,0
2018-09-19T02:33:31.059Z,0
2018-09-19T02:34:31.098Z,0
2018-09-19T02:35:31.119Z,0
2018-09-19T02:36:31.296Z,0
2018-09-19T02:37:30.860Z,0
2018-09-19T02:38:31.047Z,0
2018-09-19T02:39:31.063Z,0
2018-09-19T02:40:30.828Z,0
2018-09-19T02:41:31.033Z,0
2018-09-19T02:42:30.775Z,0
2018-09-19T02:43:31.040Z,0
2018-09-19T02:44:31.016Z,0
2018-09-19T02:45:31.020Z,0
2018-09-19T02:46:30.996Z,0
2018-09-19T02:47:30.995Z,0
2018-09-19T02:48:30.986Z,0
2018-09-19T02:49:31.004Z,0
2018-09-19T02:50:30.995Z,0
2018-09-19T02:51:33.531Z,0
2018-09-19T02:52:30.980Z,0
2018-09-19T02:53:30.960Z,0
2018-09-19T02:54:33.566Z,0
2018-09-19T02:55:30.959Z,0
2018-09-19T02:56:30.983Z,0
2018-09-19T02:57:30.968Z,0
2018-09-19T02:58:30.707Z,0
2018-09-19T02:59:31.100Z,0
2018-09-19T03:00:30.944Z,0
2018-09-19T03:01:30.930Z,0
2018-09-19T03:02:30.921Z,0
2018-09-19T03:03:30.913Z,0
2018-09-19T03:04:30.957Z,0
2018-09-19T03:05:30.925Z,0
2018-09-19T03:06:30.912Z,0
2018-09-19T03:07:31.151Z,0
2018-09-19T03:08:30.914Z,0
2018-09-19T03:09:30.907Z,0
2018-09-19T03:10:30.634Z,0
2018-09-19T03:11:30.901Z,0
2018-09-19T03:12:30.875Z,0
2018-09-19T03:13:30.868Z,0
2018-09-19T03:14:30.864Z,0
2018-09-19T03:15:30.871Z,0
2018-09-19T03:16:30.858Z,0
2018-09-19T03:17:31.495Z,0
2018-09-19T03:18:30.886Z,0
2018-09-19T03:19:30.888Z,0
2018-09-19T03:20:30.856Z,0
2018-09-19T03:21:30.847Z,0
2018-09-19T03:22:30.824Z,0
2018-09-19T03:23:30.573Z,0
2018-09-19T03:24:30.847Z,0
2018-09-19T03:25:30.823Z,0
2018-09-19T03:26:30.810Z,0
2018-09-19T03:27:30.807Z,0
2018-09-19T03:28:30.798Z,0
2018-09-19T03:29:30.793Z,0
2018-09-19T03:30:30.822Z,0
2018-09-19T03:31:30.886Z,0
2018-09-19T03:32:30.279Z,0
2018-09-19T03:33:30.781Z,0
2018-09-19T03:34:30.555Z,0
2018-09-19T03:35:31.266Z,0
2018-09-19T03:36:30.513Z,0
2018-09-19T03:37:30.855Z,0
2018-09-19T03:38:30.998Z,0
2018-09-19T03:39:30.778Z,0
2018-09-19T03:40:30.521Z,0
2018-09-19T03:41:30.733Z,0
2018-09-19T03:42:30.763Z,0
2018-09-19T03:43:30.733Z,0
2018-09-19T03:44:30.492Z,0
2018-09-19T03:45:30.723Z,0
2018-09-19T03:46:30.462Z,0
2018-09-19T03:47:30.713Z,0
2018-09-19T03:48:30.703Z,0
2018-09-19T03:49:30.713Z,0
2018-09-19T03:50:30.705Z,0
2018-09-19T03:51:30.444Z,0
2018-09-19T03:52:30.729Z,0
2018-09-19T03:53:30.684Z,0
2018-09-19T03:54:30.180Z,0
2018-09-19T03:55:30.434Z,0
2018-09-19T03:56:30.687Z,0
2018-09-19T03:57:30.677Z,0
2018-09-19T03:58:30.803Z,0
2018-09-19T03:59:30.651Z,0
2018-09-19T04:00:30.643Z,0
2018-09-19T04:01:30.687Z,0
2018-09-19T04:02:30.384Z,0
2018-09-19T04:03:30.652Z,0
2018-09-19T04:04:30.635Z,0
2018-09-19T04:05:30.635Z,0
2018-09-19T04:06:30.621Z,0
2018-09-19T04:07:30.615Z,0
2018-09-19T04:08:30.605Z,4
2018-09-19T04:09:30.871Z,4
2018-09-19T04:10:30.609Z,0
2018-09-19T04:11:30.593Z,0
2018-09-19T04:12:30.599Z,4
2018-09-19T04:13:30.587Z,0
2018-09-19T04:14:30.329Z,4
2018-09-19T04:15:30.582Z,4
2018-09-19T04:16:30.567Z,8
2018-09-19T04:17:30.568Z,8
2018-09-19T04:18:30.573Z,4
2018-09-19T04:19:30.573Z,8
2018-09-19T04:20:30.561Z,8
2018-09-19T04:21:30.553Z,12
2018-09-19T04:22:30.557Z,16
2018-09-19T04:23:30.528Z,16
2018-09-19T04:24:30.540Z,20
2018-09-19T04:25:30.280Z,20
2018-09-19T04:26:30.536Z,28
2018-09-19T04:27:30.525Z,36
2018-09-19T04:28:30.500Z,40
2018-09-19T04:29:30.509Z,48
2018-09-19T04:30:34.053Z,56
2018-09-19T04:31:30.232Z,64
2018-09-19T04:32:31.117Z,72
2018-09-19T04:33:30.484Z,88
2018-09-19T04:34:30.492Z,100
2018-09-19T04:35:30.470Z,112
2018-09-19T04:36:31.289Z,132
2018-09-19T04:37:30.201Z,148
2018-09-19T04:38:30.488Z,168
2018-09-19T04:39:30.204Z,188
2018-09-19T04:40:30.455Z,212
2018-09-19T04:41:30.693Z,236
2018-09-19T04:42:30.433Z,264
2018-09-19T04:43:30.442Z,292
2018-09-19T04:44:30.420Z,320
2018-09-19T04:45:30.178Z,352
2018-09-19T04:46:30.418Z,384
2018-09-19T04:47:30.411Z,420
2018-09-19T04:48:30.406Z,456
2018-09-19T04:49:30.418Z,496
2018-09-19T04:50:30.424Z,540
2018-09-19T04:51:30.278Z,584
2018-09-19T04:52:30.472Z,628
2018-09-19T04:53:30.373Z,684
2018-09-19T04:54:30.371Z,736
2018-09-19T04:55:30.358Z,792
2018-09-19T04:56:30.422Z,848
2018-09-19T04:57:30.357Z,904
2018-09-19T04:58:30.348Z,968
2018-09-19T04:59:30.347Z,1028
2018-09-19T05:00:30.385Z,1092
2018-09-19T05:01:30.343Z,1160
2018-09-19T05:02:30.323Z,1224
2018-09-19T05:03:29.815Z,1296
2018-09-19T05:04:30.329Z,1368
2018-09-19T05:05:30.364Z,1444
2018-09-19T05:06:30.315Z,1520
2018-09-19T05:07:30.715Z,1596
2018-09-19T05:08:30.044Z,1676
2018-09-19T05:09:30.318Z,1764
2018-09-19T05:10:30.300Z,1852
2018-09-19T05:11:30.693Z,1956
2018-09-19T05:12:30.565Z,2064
2018-09-19T05:13:30.290Z,2156
2018-09-19T05:14:30.016Z,2228
2018-09-19T05:15:30.254Z,2332
2018-09-19T05:16:30.015Z,2468
2018-09-19T05:17:30.243Z,2596
2018-09-19T05:18:30.244Z,2720
2018-09-19T05:19:30.282Z,2840
2018-09-19T05:20:30.240Z,2972
2018-09-19T05:21:30.255Z,3096
2018-09-19T05:22:30.222Z,3228
2018-09-19T05:23:30.273Z,3344
2018-09-19T05:24:29.960Z,3472
2018-09-19T05:25:30.226Z,3628
2018-09-19T05:26:30.217Z,3764
2018-09-19T05:27:30.206Z,3900
2018-09-19T05:28:30.195Z,4028
2018-09-19T05:29:30.197Z,4132
2018-09-19T05:30:30.182Z,4252
2018-09-19T05:31:30.240Z,4420
2018-09-19T05:32:30.189Z,4500
2018-09-19T05:33:30.168Z,4584
2018-09-19T05:34:30.177Z,4812
2018-09-19T05:35:29.905Z,4924
2018-09-19T05:36:30.160Z,5020
2018-09-19T05:37:30.152Z,5180
2018-09-19T05:38:30.152Z,5416
2018-09-19T05:39:29.637Z,5536
2018-09-19T05:40:30.135Z,5636
2018-09-19T05:41:29.884Z,5848
2018-09-19T05:42:29.928Z,5940
2018-09-19T05:43:30.384Z,5904
2018-09-19T05:44:29.875Z,5672
2018-09-19T05:45:30.128Z,5440
2018-09-19T05:46:30.370Z,5788
2018-09-19T05:47:30.124Z,5664
2018-09-19T05:48:29.866Z,6396
2018-09-19T05:49:30.201Z,6656
2018-09-19T05:50:30.112Z,6840
2018-09-19T05:51:30.116Z,6804
2018-09-19T05:52:30.100Z,6988
2018-09-19T05:53:30.103Z,7380
2018-09-19T05:54:30.326Z,7552
2018-09-19T05:55:30.099Z,7876
2018-09-19T05:56:30.092Z,8056
2018-09-19T05:57:30.093Z,8228
2018-09-19T05:58:30.102Z,8428
2018-09-19T05:59:30.113Z,8660
2018-09-19T06:00:30.095Z,8652
2018-09-19T06:01:30.090Z,8984
2018-09-19T06:02:30.086Z,9308
2018-09-19T06:03:30.099Z,9508
2018-09-19T06:04:30.088Z,9400
2018-09-19T06:05:29.831Z,9620
2018-09-19T06:06:30.082Z,10044
2018-09-19T06:07:29.831Z,10368
2018-09-19T06:08:29.876Z,10696
2018-09-19T06:09:30.079Z,10852
2018-09-19T06:10:30.076Z,11112
2018-09-19T06:11:29.838Z,11748
2018-09-19T06:12:29.820Z,11808
2018-09-19T06:13:30.083Z,10724
2018-09-19T06:14:30.390Z,12552
2018-09-19T06:15:30.076Z,13088
2018-09-19T06:16:30.081Z,13280
2018-09-19T06:17:30.080Z,13120
2018-09-19T06:18:30.079Z,13216
2018-09-19T06:19:30.098Z,13472
2018-09-19T06:20:29.838Z,14144
2018-09-19T06:21:29.927Z,14656
2018-09-19T06:22:30.080Z,15168
2018-09-19T06:23:30.090Z,15488
2018-09-19T06:24:30.081Z,16128
2018-09-19T06:25:30.091Z,16928
2018-09-19T06:26:29.847Z,17600
2018-09-19T06:27:30.132Z,17920
2018-09-19T06:28:29.844Z,18784
2018-09-19T06:29:30.103Z,20064
2018-09-19T06:30:30.103Z,20352
2018-09-19T06:31:30.163Z,20320
2018-09-19T06:32:29.857Z,20672
2018-09-19T06:33:30.457Z,20480
2018-09-19T06:34:30.138Z,20320
2018-09-19T06:35:30.112Z,19744
2018-09-19T06:36:30.114Z,19232
2018-09-19T06:37:30.122Z,19104
2018-09-19T06:38:30.014Z,17856
2018-09-19T06:39:30.137Z,11900
2018-09-19T06:40:30.747Z,13116
2018-09-19T06:41:30.145Z,12148
2018-09-19T06:42:29.903Z,14336
2018-09-19T06:43:30.155Z,11768
2018-09-19T06:44:30.218Z,18208
2018-09-19T06:45:30.470Z,10760
2018-09-19T06:46:30.184Z,10448
2018-09-19T06:47:30.172Z,10596
2018-09-19T06:48:30.177Z,10992
2018-09-19T06:49:30.208Z,11340
2018-09-19T06:50:30.186Z,11812
2018-09-19T06:51:30.196Z,19360
2018-09-19T06:52:30.569Z,22144
2018-09-19T06:53:29.946Z,23776
2018-09-19T06:54:30.206Z,23648
2018-09-19T06:55:30.209Z,12664
2018-09-19T06:56:30.212Z,21760
2018-09-19T06:57:30.219Z,25184
2018-09-19T06:58:30.218Z,26240
2018-09-19T06:59:30.232Z,26400
2018-09-19T07:00:30.234Z,25920
2018-09-19T07:01:29.994Z,26016
2018-09-19T07:02:30.247Z,26368
2018-09-19T07:03:30.247Z,27680
2018-09-19T07:04:30.011Z,28064
2018-09-19T07:05:30.255Z,28768
2018-09-19T07:06:30.267Z,30208
2018-09-19T07:07:30.269Z,30560
2018-09-19T07:08:30.274Z,32768
2018-09-19T07:09:30.046Z,34272
2018-09-19T07:10:30.449Z,36416
2018-09-19T07:11:30.293Z,38016
2018-09-19T07:12:30.300Z,39840
2018-09-19T07:13:30.302Z,32832
2018-09-19T07:14:30.391Z,38880
2018-09-19T07:15:30.327Z,41632
2018-09-19T07:16:30.077Z,44608
2018-09-19T07:17:30.341Z,45664
2018-09-19T07:18:30.360Z,33888
2018-09-19T07:19:30.410Z,45152
2018-09-19T07:20:30.366Z,45440
2018-09-19T07:21:30.378Z,46176
2018-09-19T07:22:30.382Z,44864
2018-09-19T07:23:30.391Z,43328
2018-09-19T07:24:30.408Z,42944
2018-09-19T07:25:30.446Z,44512
2018-09-19T07:26:30.416Z,45888
2018-09-19T07:27:30.425Z,41920
2018-09-19T07:28:30.452Z,39584
2018-09-19T07:29:30.457Z,34688
2018-09-19T07:30:30.465Z,29568
2018-09-19T07:31:30.468Z,24960
2018-09-19T07:32:30.241Z,27968
2018-09-19T07:33:30.483Z,28576
2018-09-19T07:34:30.733Z,28320
2018-09-19T07:35:30.520Z,31040
2018-09-19T07:36:30.528Z,32192
2018-09-19T07:37:30.275Z,31456
2018-09-19T07:38:30.536Z,30816
2018-09-19T07:39:30.557Z,29600
2018-09-19T07:40:30.863Z,34656
2018-09-19T07:41:30.567Z,36384
2018-09-19T07:42:30.581Z,34496
2018-09-19T07:43:30.324Z,33440
2018-09-19T07:44:30.597Z,35968
2018-09-19T07:45:30.593Z,38944
2018-09-19T07:46:30.882Z,38016
2018-09-19T07:47:30.622Z,37056
2018-09-19T07:48:30.885Z,37184
2018-09-19T07:49:30.635Z,25824
2018-09-19T07:50:30.640Z,18816
2018-09-19T07:51:30.654Z,17088
2018-09-19T07:52:30.404Z,17856
2018-09-19T07:53:30.414Z,35584
2018-09-19T07:54:30.860Z,35168
2018-09-19T07:55:30.753Z,31872
2018-09-19T07:56:30.696Z,25536
2018-09-19T07:57:30.695Z,20896
2018-09-19T07:58:30.738Z,18880
2018-09-19T07:59:30.728Z,19392
2018-09-19T08:00:30.972Z,22336
2018-09-19T08:01:30.738Z,23744
2018-09-19T08:02:30.834Z,17984
2018-09-19T08:03:30.756Z,16132
2018-09-19T08:04:30.507Z,16168
2018-09-19T08:05:30.764Z,16056
2018-09-19T08:06:30.758Z,15976
2018-09-19T08:07:30.767Z,15848
2018-09-19T08:08:30.795Z,15536
2018-09-19T08:09:30.798Z,15360
2018-09-19T08:10:30.790Z,14776
2018-09-19T08:11:30.811Z,14168
2018-09-19T08:12:30.813Z,13908
2018-09-19T08:13:30.811Z,13796
2018-09-19T08:14:30.856Z,13764
2018-09-19T08:15:30.814Z,13940
2018-09-19T08:16:30.865Z,13856
2018-09-19T08:17:30.829Z,13892
2018-09-19T08:18:30.904Z,14032
2018-09-19T08:19:31.113Z,14192
2018-09-19T08:20:30.856Z,14160
2018-09-19T08:21:30.597Z,14064
2018-09-19T08:22:31.027Z,13812
2018-09-19T08:23:30.856Z,13616
2018-09-19T08:24:30.870Z,13656
2018-09-19T08:25:30.862Z,13748
2018-09-19T08:26:30.881Z,13680
2018-09-19T08:27:30.623Z,13476
2018-09-19T08:28:30.891Z,13104
2018-09-19T08:29:30.900Z,12940
2018-09-19T08:30:30.892Z,12848
2018-09-19T08:31:30.884Z,12772
2018-09-19T08:32:30.891Z,12716
2018-09-19T08:33:30.914Z,12544
2018-09-19T08:34:30.911Z,12748
2018-09-19T08:35:30.903Z,13008
2018-09-19T08:36:30.911Z,12896
2018-09-19T08:37:30.922Z,12616
2018-09-19T08:38:30.919Z,12328
2018-09-19T08:39:30.919Z,11960
2018-09-19T08:40:30.920Z,11428
2018-09-19T08:41:30.928Z,10940
2018-09-19T08:42:30.935Z,10764
2018-09-19T08:43:30.939Z,10836
2018-09-19T08:44:30.955Z,10868
2018-09-19T08:45:30.940Z,10852
2018-09-19T08:46:30.687Z,10940
2018-09-19T08:47:30.938Z,10844
2018-09-19T08:48:31.014Z,10584
2018-09-19T08:49:30.954Z,10268
2018-09-19T08:50:31.390Z,10100
2018-09-19T08:51:30.708Z,9888
2018-09-19T08:52:31.008Z,9572
2018-09-19T08:53:31.015Z,9232
2018-09-19T08:54:30.970Z,9184
2018-09-19T08:55:30.972Z,9440
2018-09-19T08:56:30.977Z,9544
2018-09-19T08:57:30.727Z,9304
2018-09-19T08:58:30.981Z,8852
2018-09-19T08:59:31.007Z,8396
2018-09-19T09:00:30.769Z,8088
2018-09-19T09:01:30.995Z,8044
2018-09-19T09:02:30.985Z,7944
2018-09-19T09:03:30.990Z,8004
2018-09-19T09:04:30.990Z,8112
2018-09-19T09:05:31.581Z,8268
2018-09-19T09:06:30.749Z,8376
2018-09-19T09:07:30.752Z,8588
2018-09-19T09:08:31.001Z,8740
2018-09-19T09:09:31.007Z,8804
2018-09-19T09:10:31.018Z,8860
2018-09-19T09:11:31.011Z,8872
2018-09-19T09:12:31.140Z,8888
2018-09-19T09:13:31.076Z,8860
2018-09-19T09:14:31.011Z,8764
2018-09-19T09:15:31.016Z,8648
2018-09-19T09:16:30.775Z,8548
2018-09-19T09:17:30.772Z,8448
2018-09-19T09:18:31.022Z,8352
2018-09-19T09:19:31.028Z,8256
2018-09-19T09:20:31.111Z,8160
2018-09-19T09:21:31.287Z,8096
2018-09-19T09:22:31.031Z,8036
2018-09-19T09:23:31.038Z,7968
2018-09-19T09:24:31.034Z,7908
2018-09-19T09:25:31.047Z,7848
2018-09-19T09:26:31.054Z,7720
2018-09-19T09:27:31.478Z,7720
2018-09-19T09:28:31.108Z,7704
2018-09-19T09:29:31.042Z,7656
2018-09-19T09:30:31.064Z,7588
2018-09-19T09:31:31.045Z,7524
2018-09-19T09:32:31.114Z,7456
2018-09-19T09:33:30.797Z,7384
2018-09-19T09:34:31.370Z,7344
2018-09-19T09:35:31.064Z,7296
2018-09-19T09:36:31.053Z,7240
2018-09-19T09:37:31.062Z,7188
2018-09-19T09:38:30.861Z,7132
2018-09-19T09:39:31.065Z,7084
2018-09-19T09:40:31.603Z,7040
2018-09-19T09:41:31.066Z,7004
2018-09-19T09:42:31.071Z,6956
2018-09-19T09:43:31.036Z,6920
2018-09-19T09:44:31.075Z,6884
2018-09-19T09:45:31.105Z,6844
2018-09-19T09:46:31.082Z,6800
2018-09-19T09:47:31.093Z,6752
2018-09-19T09:48:31.072Z,6708
2018-09-19T09:49:31.079Z,6664
2018-09-19T09:50:31.473Z,6636
2018-09-19T09:51:31.207Z,6612
2018-09-19T09:52:31.092Z,6576
2018-09-19T09:54:31.089Z,6500
2018-09-19T09:55:31.089Z,6468
2018-09-19T09:56:31.106Z,6432
2018-09-19T09:57:31.095Z,6400
2018-09-19T09:58:31.093Z,6384
2018-09-19T09:59:31.098Z,6364
2018-09-19T10:00:30.844Z,6344
2018-09-19T10:01:31.097Z,6348
2018-09-19T10:02:31.097Z,6352
2018-09-19T10:03:31.120Z,6336
2018-09-19T10:04:31.104Z,6316
2018-09-19T10:05:31.103Z,6292
2018-09-19T10:06:31.438Z,6272
2018-09-19T10:07:31.114Z,6256
2018-09-19T10:08:30.880Z,6232
2018-09-19T10:09:31.111Z,6200
2018-09-19T10:10:30.861Z,6192
2018-09-19T10:11:30.900Z,6184
2018-09-19T10:12:31.115Z,6164
2018-09-19T10:13:31.118Z,6164
2018-09-19T10:14:30.862Z,6168
2018-09-19T10:15:31.121Z,6168
2018-09-19T10:16:31.169Z,6152
2018-09-19T10:17:31.124Z,6144
2018-09-19T10:18:31.119Z,6136
2018-09-19T10:19:30.870Z,6136
2018-09-19T10:20:31.119Z,6132
2018-09-19T10:21:31.130Z,6132
2018-09-19T10:22:30.618Z,6132
2018-09-19T10:23:31.125Z,6136
2018-09-19T10:24:31.134Z,6148
2018-09-19T10:25:31.130Z,6124
2018-09-19T10:26:31.130Z,6092
2018-09-19T10:27:30.881Z,6064
2018-09-19T10:28:30.884Z,6032
2018-09-19T10:29:31.420Z,6016
2018-09-19T10:30:31.140Z,6008
2018-09-19T10:31:31.137Z,6000
2018-09-19T10:32:31.144Z,6000
2018-09-19T10:33:31.160Z,5996
2018-09-19T10:34:31.143Z,5952
2018-09-19T10:35:31.487Z,5928
2018-09-19T10:36:31.152Z,5924
2018-09-19T10:37:31.150Z,6000
2018-09-19T10:38:31.149Z,6016
2018-09-19T10:39:31.152Z,6020
2018-09-19T10:40:31.150Z,5992
2018-09-19T10:41:31.160Z,5960
2018-09-19T10:42:31.160Z,5936
2018-09-19T10:43:31.152Z,5932
2018-09-19T10:44:31.170Z,5940
2018-09-19T10:45:31.162Z,5960
2018-09-19T10:46:31.155Z,5976
2018-09-19T10:47:30.914Z,5988
2018-09-19T10:48:31.162Z,5996
2018-09-19T10:49:31.131Z,6000
2018-09-19T10:50:31.168Z,5996
2018-09-19T10:51:31.180Z,5964
2018-09-19T10:52:30.662Z,5832
2018-09-19T10:53:30.945Z,5696
2018-09-19T10:54:31.178Z,5696
2018-09-19T10:55:31.174Z,5648
2018-09-19T10:56:31.180Z,5628
2018-09-19T10:57:30.926Z,5580
2018-09-19T10:58:31.179Z,5588
2018-09-19T10:59:31.192Z,5616
2018-09-19T11:00:31.191Z,5592
2018-09-19T11:01:31.184Z,5544
2018-09-19T11:02:31.181Z,5512
2018-09-19T11:03:31.192Z,5540
2018-09-19T11:04:30.938Z,5560
2018-09-19T11:05:31.192Z,5572
2018-09-19T11:06:31.189Z,5580
2018-09-19T11:07:31.194Z,5596
2018-09-19T11:08:31.197Z,5616
2018-09-19T11:09:31.194Z,5600
2018-09-19T11:10:31.198Z,5580
2018-09-19T11:11:31.200Z,5552
2018-09-19T11:12:30.944Z,5532
2018-09-19T11:13:31.203Z,5504
2018-09-19T11:14:31.200Z,5504
2018-09-19T11:15:31.005Z,5520
2018-09-19T11:16:31.203Z,5536
2018-09-19T11:17:31.204Z,5552
2018-09-19T11:18:31.204Z,5560
2018-09-19T11:19:31.212Z,5580
2018-09-19T11:20:30.961Z,5604
2018-09-19T11:21:31.212Z,5596
2018-09-19T11:22:31.213Z,5572
2018-09-19T11:23:31.219Z,5544
2018-09-19T11:24:31.222Z,5528
2018-09-19T11:25:30.970Z,5512
2018-09-19T11:26:31.580Z,5516
2018-09-19T11:27:31.229Z,5528
2018-09-19T11:28:31.224Z,5540
2018-09-19T11:29:31.227Z,5544
2018-09-19T11:30:31.226Z,5548
2018-09-19T11:31:31.231Z,5548
2018-09-19T11:32:30.984Z,5544
2018-09-19T11:33:31.347Z,5548
2018-09-19T11:34:31.230Z,5544
2018-09-19T11:35:31.233Z,5536
2018-09-19T11:36:30.983Z,5520
2018-09-19T11:37:30.985Z,5520
2018-09-19T11:38:31.239Z,5508
2018-09-19T11:39:31.241Z,5512
2018-09-19T11:40:31.241Z,5516
2018-09-19T11:41:30.993Z,5524
2018-09-19T11:42:31.245Z,5532
2018-09-19T11:43:31.430Z,5548
2018-09-19T11:44:31.253Z,5548
2018-09-19T11:45:31.006Z,5564
2018-09-19T11:46:31.002Z,5552
2018-09-19T11:47:31.262Z,5532
2018-09-19T11:48:31.284Z,5520
2018-09-19T11:49:31.007Z,5516
2018-09-19T11:50:31.267Z,5516
2018-09-19T11:51:31.012Z,5524
2018-09-19T11:52:31.263Z,5516
2018-09-19T11:53:31.026Z,5504
2018-09-19T11:54:31.265Z,5500
2018-09-19T11:55:31.276Z,5500
2018-09-19T11:56:31.019Z,5492
2018-09-19T11:57:31.030Z,5476
2018-09-19T11:58:31.276Z,5460
2018-09-19T11:59:31.026Z,5460
2018-09-19T12:00:31.296Z,5460
2018-09-19T12:01:31.034Z,5452
2018-09-19T12:02:31.289Z,5448
2018-09-19T12:03:31.290Z,5436
2018-09-19T12:04:31.043Z,5432
2018-09-19T12:05:31.292Z,5440
2018-09-19T12:06:31.288Z,5456
2018-09-19T12:07:31.245Z,5460
2018-09-19T12:08:31.302Z,5452
2018-09-19T12:09:31.304Z,5440
2018-09-19T12:10:31.304Z,5436
2018-09-19T12:11:31.303Z,5436
2018-09-19T12:12:31.300Z,5432
2018-09-19T12:13:31.307Z,5420
2018-09-19T12:14:31.308Z,5412
2018-09-19T12:15:31.314Z,5408
2018-09-19T12:16:31.306Z,5416
2018-09-19T12:17:31.058Z,5432
2018-09-19T12:18:31.314Z,5440
2018-09-19T12:19:31.485Z,5448
2018-09-19T12:20:31.320Z,5456
2018-09-19T12:21:31.318Z,5468
2018-09-19T12:22:31.331Z,5468
2018-09-19T12:23:31.332Z,5468
2018-09-19T12:24:31.323Z,5468
2018-09-19T12:25:31.075Z,5464
2018-09-19T12:26:31.593Z,5448
2018-09-19T12:27:31.336Z,5436
2018-09-19T12:28:31.081Z,5420
2018-09-19T12:29:31.337Z,5404
2018-09-19T12:30:31.337Z,5392
2018-09-19T12:31:31.091Z,5384
2018-09-19T12:32:31.343Z,5360
2018-09-19T12:33:31.198Z,5340
2018-09-19T12:34:31.357Z,5336
2018-09-19T12:35:31.349Z,5324
2018-09-19T12:36:31.351Z,5324
2018-09-19T12:37:31.358Z,5348
2018-09-19T12:38:31.106Z,5380
2018-09-19T12:39:31.488Z,5420
2018-09-19T12:40:31.117Z,5444
2018-09-19T12:41:31.370Z,5440
2018-09-19T12:42:31.130Z,5432
2018-09-19T12:43:31.366Z,5436
2018-09-19T12:44:31.368Z,5444
2018-09-19T12:45:31.120Z,5440
2018-09-19T12:46:31.372Z,5428
2018-09-19T12:47:31.377Z,5416
2018-09-19T12:48:30.875Z,5404
2018-09-19T12:49:31.382Z,5400
2018-09-19T12:50:31.391Z,5380
2018-09-19T12:51:31.388Z,5348
2018-09-19T12:52:31.389Z,5328
2018-09-19T12:53:31.246Z,5304
2018-09-19T12:54:31.149Z,5304
2018-09-19T12:55:31.395Z,5292
2018-09-19T12:56:31.396Z,5280
2018-09-19T12:57:31.404Z,5276
2018-09-19T12:58:31.409Z,5272
2018-09-19T12:59:31.156Z,5268
2018-09-19T13:00:31.403Z,5252
2018-09-19T13:01:31.160Z,5264
2018-09-19T13:02:31.413Z,5244
2018-09-19T13:03:31.419Z,5192
2018-09-19T13:04:31.167Z,5192
2018-09-19T13:05:31.167Z,5204
2018-09-19T13:06:31.358Z,5200
2018-09-19T13:07:31.171Z,5196
2018-09-19T13:08:31.436Z,5188
2018-09-19T13:09:31.435Z,5184
2018-09-19T13:10:31.432Z,5180
2018-09-19T13:11:31.437Z,5176
2018-09-19T13:12:31.445Z,5168
2018-09-19T13:13:31.188Z,5140
2018-09-19T13:14:31.444Z,5128
2018-09-19T13:15:31.193Z,5124
2018-09-19T13:16:31.458Z,5092
2018-09-19T13:17:31.450Z,5108
2018-09-19T13:18:31.461Z,5104
2018-09-19T13:19:31.201Z,5096
2018-09-19T13:20:31.462Z,5088
2018-09-19T13:21:31.458Z,5088
2018-09-19T13:22:31.209Z,5084
2018-09-19T13:23:31.217Z,5084
2018-09-19T13:24:31.467Z,5072
2018-09-19T13:25:31.472Z,5052
2018-09-19T13:26:31.474Z,5044
2018-09-19T13:27:31.455Z,5028
2018-09-19T13:28:31.232Z,5020
2018-09-19T13:29:31.481Z,5008
2018-09-19T13:30:31.241Z,4996
2018-09-19T13:31:30.984Z,4984
2018-09-19T13:32:31.236Z,4976
2018-09-19T13:33:31.490Z,4980
2018-09-19T13:34:31.506Z,4976
2018-09-19T13:35:31.499Z,4968
2018-09-19T13:36:31.243Z,4960
2018-09-19T13:37:31.501Z,4960
2018-09-19T13:38:31.499Z,4968
2018-09-19T13:39:31.508Z,4968
2018-09-19T13:40:31.512Z,4956
2018-09-19T13:41:31.261Z,4936